METAR Data
IDs: Format: Raw Decoded Include TAF

Data at: 0123 UTC 24 Sep 2018

METAR for:KCGC (Crystal River Arpt, FL, US)
Text:KCGC 240115Z AUTO 07004KT 10SM SCT042 BKN047 OVC055 26/22 A3000 RMK AO2 LTG DSNT SW
Temperature: 26.0°C ( 79°F)
Dewpoint: 22.0°C ( 72°F) [RH = 79%]
Pressure (altimeter):30.00 inches Hg (1016.0 mb)
Winds:from the ENE (70 degrees) at 5 MPH (4 knots; 2.1 m/s)
Visibility:10 or more sm (16+ km)
Ceiling:4700 feet AGL
Clouds: scattered clouds at 4200 feet AGL, broken clouds at 4700 feet AGL, overcast cloud deck at 5500 feet AGL
QC Flag:automated observation with no human augmentation